Terminal Aerodrome Forecast
Issued by NWS

Home | Current Version | Previous Version | Text Only | Print | Product List | Glossary On
Versions: 1 2 3 4 5 6 7 8 9 10 11 12 13 14
000
FTUS45 KREV 190100 AAA
TAFRNO
TAF AMD
KRNO 190140Z 1902/1924 30010G18KT P6SM VCSH SCT070 BKN100
     FM190400 32009KT P6SM BKN070
     FM190600 VRB03KT P6SM SCT070
     FM192000 24012G22KT P6SM SCT100=

USA.gov is the U.S. government's official web portal to all federal, state and local government web resources and services.